Time;durP1;ratioP1;P1;durP2;ratioP2;P2;SDS_P1;SDS_P2;PMS_P1;PMS_P2;Temp;Humidity;BMP_temperature;BMP_pressure;BME280_temperature;BME280_humidity;BME280_pressure;Samples;Min_cycle;Max_cycle;Signal;HPM_P1;HPM_P2
2023/04/28 00:01:13;;;;;;;;;3.00;3.00;;;;;19.07;71.80;100585.84;4948069;28;46645;-59
2023/04/28 00:03:39;;;;;;;;;4.25;4.00;;;;;19.03;71.91;100585.53;4934661;28;45323;-59
2023/04/28 00:06:04;;;;;;;;;5.00;5.00;;;;;19.02;72.24;100602.47;4932505;28;45403;-61
2023/04/28 00:08:31;;;;;;;;;4.00;4.00;;;;;18.96;71.98;100585.75;4947717;28;45633;-61
2023/04/28 00:10:56;;;;;;;;;3.60;3.60;;;;;19.01;72.30;100592.44;4933533;28;45415;-61
2023/04/28 00:13:22;;;;;;;;;4.50;4.50;;;;;19.05;71.91;100594.44;4933363;28;45384;-61
2023/04/28 00:15:49;;;;;;;;;5.25;3.75;;;;;19.04;72.09;100587.22;4934097;28;45342;-61
2023/04/28 00:18:14;;;;;;;;;5.00;5.00;;;;;19.05;72.06;100594.44;4933846;28;45438;-61
2023/04/28 00:20:39;;;;;;;;;5.00;5.00;;;;;19.06;72.25;100592.50;4933973;28;46504;-61
2023/04/28 00:23:05;;;;;;;;;3.75;3.75;;;;;19.09;72.49;100605.84;4933705;28;45339;-62
2023/04/28 00:25:30;;;;;;;;;3.50;3.25;;;;;19.10;72.71;100599.19;4939949;28;45419;-62
2023/04/28 00:27:56;;;;;;;;;6.75;6.50;;;;;19.09;72.77;100584.44;4927775;28;45775;-60
2023/04/28 00:30:24;;;;;;;;;5.40;4.20;;;;;19.08;72.90;100585.56;4932856;28;46798;-61
2023/04/28 00:32:49;;;;;;;;;4.80;4.80;;;;;19.09;72.94;100590.00;4933214;28;45361;-61
2023/04/28 00:35:15;;;;;;;;;5.50;5.50;;;;;19.06;73.12;100598.88;4933516;28;45340;-60
2023/04/28 00:37:40;;;;;;;;;6.25;6.25;;;;;18.96;72.58;100587.72;4933684;28;45290;-61
2023/04/28 00:40:06;;;;;;;;;4.75;4.75;;;;;18.95;73.23;100592.44;4933402;28;45247;-60
2023/04/28 00:42:32;;;;;;;;;5.40;5.20;;;;;18.95;73.27;100588.81;4933191;28;45317;-61
2023/04/28 00:44:57;;;;;;;;;6.50;6.00;;;;;18.95;73.67;100594.38;5001173;28;45432;-60
2023/04/28 00:47:23;;;;;;;;;5.25;4.75;;;;;18.96;73.41;100580.19;5038117;28;45192;-60
2023/04/28 00:49:49;;;;;;;;;8.75;6.75;;;;;18.98;73.48;100573.53;5037456;28;46420;-61
2023/04/28 00:52:14;;;;;;;;;5.00;4.00;;;;;18.97;73.29;100572.69;5037620;28;45377;-61
2023/04/28 00:54:41;;;;;;;;;7.25;7.00;;;;;19.01;73.41;100575.78;5070434;28;45354;-61
2023/04/28 00:57:07;;;;;;;;;5.00;5.00;;;;;18.93;73.23;100574.34;5038023;28;45451;-61
2023/04/28 00:59:32;;;;;;;;;6.75;6.75;;;;;18.99;73.52;100589.13;5052630;28;47979;-62
2023/04/28 01:01:58;;;;;;;;;11.00;9.50;;;;;18.97;73.44;100581.03;5037795;28;45323;-60
2023/04/28 01:04:24;;;;;;;;;4.60;4.60;;;;;18.96;73.79;100585.75;5069728;28;45503;-60
2023/04/28 01:06:50;;;;;;;;;3.25;3.25;;;;;18.96;73.53;100584.94;5069901;28;45598;-60
2023/04/28 01:09:15;;;;;;;;;4.20;4.20;;;;;18.89;73.71;100570.44;5069623;28;45389;-59
2023/04/28 01:11:41;;;;;;;;;4.50;3.00;;;;;18.97;73.83;100589.38;5069320;28;45475;-60
2023/04/28 01:14:07;;;;;;;;;3.75;3.75;;;;;18.94;74.25;100592.72;5037430;28;45401;-63
2023/04/28 01:16:32;;;;;;;;;3.00;2.00;;;;;18.90;74.14;100574.91;5036272;28;45215;-60
2023/04/28 01:18:58;;;;;;;;;2.50;1.75;;;;;18.94;73.98;100582.41;5037009;28;45617;-60
2023/04/28 01:21:31;;;;;;;;;2.00;2.00;;;;;18.84;73.60;100568.50;5035937;28;45412;-60
2023/04/28 01:23:57;;;;;;;;;3.40;3.40;;;;;18.89;74.15;100574.06;5068168;28;45441;-60
2023/04/28 01:26:23;;;;;;;;;2.00;2.00;;;;;18.82;73.80;100571.53;5037331;28;45489;-60
2023/04/28 01:28:48;;;;;;;;;2.00;2.00;;;;;18.85;73.88;100577.66;5036869;28;46102;-60
2023/04/28 01:31:13;;;;;;;;;2.75;2.75;;;;;18.83;74.51;100575.13;5037611;28;45800;-60
2023/04/28 01:33:39;;;;;;;;;4.00;3.00;;;;;18.76;74.14;100582.88;5036929;28;45574;-60
2023/04/28 01:36:05;;;;;;;;;2.00;2.00;;;;;18.80;74.47;100575.69;5069307;28;45529;-60
2023/04/28 01:38:30;;;;;;;;;3.00;3.00;;;;;18.73;74.71;100566.78;5036788;28;46178;-60
2023/04/28 01:40:57;;;;;;;;;3.25;2.00;;;;;18.79;74.65;100585.97;5036390;28;45491;-60
2023/04/28 01:43:23;;;;;;;;;3.60;3.60;;;;;18.81;74.63;100574.59;5036803;28;45438;-61
2023/04/28 01:45:48;;;;;;;;;3.00;3.00;;;;;18.81;74.94;100583.78;4956110;28;45396;-60
2023/04/28 01:48:13;;;;;;;;;3.00;3.00;;;;;18.86;74.57;100587.66;4935252;28;46110;-60
2023/04/28 01:50:39;;;;;;;;;3.00;3.00;;;;;18.86;74.74;100582.94;4950240;28;45295;-61
2023/04/28 01:53:04;;;;;;;;;3.75;2.75;;;;;18.90;74.88;100581.28;4934840;28;45353;-60
2023/04/28 01:55:30;;;;;;;;;2.25;2.00;;;;;18.91;74.69;100582.13;4935326;28;45315;-61
2023/04/28 01:57:57;;;;;;;;;3.25;3.25;;;;;18.92;74.56;100586.56;4933905;28;47367;-60
2023/04/28 02:00:22;;;;;;;;;3.40;3.40;;;;;18.87;74.22;100575.44;4934263;28;45422;-60
2023/04/28 02:02:48;;;;;;;;;2.00;2.00;;;;;18.81;74.30;100572.66;4935030;28;45316;-60
2023/04/28 02:05:13;;;;;;;;;3.75;3.25;;;;;18.87;74.61;100572.66;4935409;28;45443;-60
2023/04/28 02:07:39;;;;;;;;;4.00;4.00;;;;;18.87;74.40;100578.22;4919337;28;45769;-61
2023/04/28 02:10:05;;;;;;;;;3.00;2.75;;;;;18.77;74.73;100577.06;4954063;28;45436;-60
2023/04/28 02:12:31;;;;;;;;;3.00;3.00;;;;;18.79;74.66;100588.75;4954280;28;45310;-60
2023/04/28 02:14:56;;;;;;;;;2.00;2.00;;;;;18.76;74.95;100580.13;4954575;28;45547;-61
2023/04/28 02:17:21;;;;;;;;;3.50;3.50;;;;;18.77;74.71;100588.19;4953962;28;45484;-61
2023/04/28 02:19:47;;;;;;;;;2.00;2.00;;;;;18.79;74.57;100580.41;4954060;28;45649;-61
2023/04/28 02:22:12;;;;;;;;;3.25;2.00;;;;;18.81;74.54;100583.78;4954198;28;45441;-60
2023/04/28 02:24:38;;;;;;;;;2.50;2.50;;;;;18.79;74.66;100582.38;4954376;28;45314;-61
2023/04/28 02:27:04;;;;;;;;;3.00;3.00;;;;;18.83;74.49;100583.47;4985203;28;46449;-59
2023/04/28 02:29:30;;;;;;;;;3.80;2.80;;;;;18.85;74.56;100594.34;4952416;28;45389;-60
2023/04/28 02:31:56;;;;;;;;;2.00;2.00;;;;;18.77;74.59;100581.78;4954051;28;45314;-60
2023/04/28 02:34:21;;;;;;;;;2.00;2.00;;;;;18.82;74.33;100595.72;4985179;28;45348;-61
2023/04/28 02:36:47;;;;;;;;;3.00;3.00;;;;;18.66;74.83;100583.69;4985185;28;47327;-60
2023/04/28 02:39:12;;;;;;;;;1.00;1.00;;;;;18.75;74.51;100584.00;4985104;28;45361;-60
2023/04/28 02:41:38;;;;;;;;;2.00;2.00;;;;;18.76;74.64;100575.41;4953966;28;45369;-60
2023/04/28 02:44:03;;;;;;;;;3.50;3.00;;;;;18.83;74.51;100587.09;4954059;28;45327;-60
2023/04/28 02:46:29;;;;;;;;;1.25;1.25;;;;;18.83;74.19;100597.38;4966217;28;47248;-60
2023/04/28 02:48:55;;;;;;;;;2.75;2.75;;;;;18.75;74.17;100586.78;4934592;28;45444;-60
2023/04/28 02:51:20;;;;;;;;;2.00;2.00;;;;;18.79;74.53;100582.38;4934370;28;45406;-60
2023/04/28 02:53:46;;;;;;;;;1.00;1.00;;;;;18.83;74.43;100584.31;4934650;28;45310;-60
2023/04/28 02:56:11;;;;;;;;;2.00;2.00;;;;;18.85;74.48;100581.28;4934718;28;45773;-60
2023/04/28 02:58:37;;;;;;;;;1.75;1.75;;;;;18.85;74.38;100577.66;4949313;28;45380;-62
2023/04/28 03:01:02;;;;;;;;;0.75;0.75;;;;;18.86;74.75;100582.09;4934720;28;45376;-60
2023/04/28 03:03:28;;;;;;;;;1.75;1.75;;;;;18.82;74.20;100565.13;4934343;28;45389;-60
2023/04/28 03:05:55;;;;;;;;;0.00;0.00;;;;;18.68;74.34;100551.72;4934471;28;45920;-60
2023/04/28 03:08:21;;;;;;;;;0.40;0.40;;;;;18.76;74.26;100574.56;4933032;28;45319;-60
2023/04/28 03:10:47;;;;;;;;;0.00;0.00;;;;;18.65;73.52;100568.13;4964905;28;45319;-61
2023/04/28 03:13:12;;;;;;;;;0.50;0.50;;;;;18.64;74.79;100572.00;4934578;28;45194;-60
2023/04/28 03:15:38;;;;;;;;;1.00;1.00;;;;;18.56;73.94;100557.53;4934036;28;46481;-60
2023/04/28 03:18:03;;;;;;;;;0.75;0.75;;;;;18.64;74.86;100572.00;4934216;28;45290;-61
2023/04/28 03:20:28;;;;;;;;;0.25;0.25;;;;;18.67;74.79;100583.41;4934302;28;45427;-60
2023/04/28 03:22:54;;;;;;;;;0.50;0.50;;;;;18.71;74.48;100583.72;4934449;28;45480;-60
2023/04/28 03:25:20;;;;;;;;;1.00;1.00;;;;;18.69;74.52;100570.06;4969563;28;45670;-60
2023/04/28 03:27:45;;;;;;;;;1.00;1.00;;;;;18.70;74.33;100565.38;5034563;28;45296;-60
2023/04/28 03:30:11;;;;;;;;;1.00;1.00;;;;;18.62;74.33;100560.34;5033862;28;45416;-60
2023/04/28 03:32:36;;;;;;;;;1.00;1.00;;;;;18.72;74.32;100567.88;5035065;28;45339;-60
2023/04/28 03:35:02;;;;;;;;;0.00;0.00;;;;;18.67;74.65;100572.31;5035075;28;45852;-60
2023/04/28 03:37:27;;;;;;;;;1.00;1.00;;;;;18.63;74.79;100573.13;5035088;28;45430;-60
2023/04/28 03:39:53;;;;;;;;;0.00;0.00;;;;;18.63;74.60;100578.69;5034896;28;45346;-62
2023/04/28 03:42:18;;;;;;;;;1.00;1.00;;;;;18.55;74.03;100575.31;5035400;28;45353;-61
2023/04/28 03:44:44;;;;;;;;;1.00;1.00;;;;;18.44;74.36;100576.34;5023686;28;45470;-61
2023/04/28 03:47:09;;;;;;;;;1.00;1.00;;;;;18.39;75.09;100565.19;4934239;28;45260;-60
2023/04/28 03:49:35;;;;;;;;;1.00;1.00;;;;;18.49;74.92;100568.03;4934405;28;45327;-60
2023/04/28 03:52:00;;;;;;;;;2.00;1.00;;;;;18.48;74.18;100566.38;4932931;28;45434;-60
2023/04/28 03:54:26;;;;;;;;;0.00;0.00;;;;;18.50;74.86;100579.97;4948467;28;46120;-60
2023/04/28 03:56:52;;;;;;;;;0.00;0.00;;;;;18.50;74.05;100580.84;4933979;28;45332;-60
2023/04/28 03:59:17;;;;;;;;;0.00;0.00;;;;;18.53;74.76;100582.25;4934030;28;45408;-60
2023/04/28 04:01:42;;;;;;;;;1.75;0.00;;;;;18.59;74.75;100580.31;4948931;28;45798;-60
2023/04/28 04:04:08;;;;;;;;;0.00;0.00;;;;;18.61;74.53;100576.16;4933891;28;45306;-60
2023/04/28 04:06:33;;;;;;;;;0.00;0.00;;;;;18.53;74.17;100582.25;4933801;28;45266;-64
2023/04/28 04:08:59;;;;;;;;;1.00;1.00;;;;;18.54;74.45;100567.22;4933582;28;45456;-62
2023/04/28 04:11:24;;;;;;;;;2.00;1.00;;;;;18.61;74.45;100584.50;4934227;28;45486;-61
2023/04/28 04:13:50;;;;;;;;;0.00;0.00;;;;;18.62;74.38;100579.78;4933299;28;46321;-61
2023/04/28 04:16:15;;;;;;;;;0.25;0.25;;;;;18.64;74.25;100585.91;4933931;28;45403;-61
2023/04/28 04:18:41;;;;;;;;;0.00;0.00;;;;;18.64;74.19;100572.00;4933356;28;45442;-61
2023/04/28 04:21:06;;;;;;;;;2.00;0.00;;;;;18.68;73.77;100578.72;4948234;28;45385;-61
2023/04/28 04:23:32;;;;;;;;;0.75;0.75;;;;;18.65;73.89;100579.22;4933491;28;46390;-61
2023/04/28 04:25:57;;;;;;;;;0.00;0.00;;;;;18.54;74.02;100583.91;4931962;28;45460;-61
2023/04/28 04:28:23;;;;;;;;;0.00;0.00;;;;;18.50;74.14;100568.88;4948078;28;45301;-63
2023/04/28 04:30:48;;;;;;;;;0.00;0.00;;;;;18.60;73.90;100579.19;4943234;28;45379;-60
2023/04/28 04:33:14;;;;;;;;;0.50;0.50;;;;;18.66;73.82;100586.47;4952296;28;46510;-60
2023/04/28 04:35:39;;;;;;;;;0.25;0.25;;;;;18.65;74.14;100593.13;4951355;28;45324;-61
2023/04/28 04:38:06;;;;;;;;;0.00;0.00;;;;;18.69;73.83;100594.28;4952706;28;45473;-60
2023/04/28 04:40:31;;;;;;;;;0.80;0.80;;;;;18.65;73.92;100585.63;4952929;28;45326;-60
2023/04/28 04:42:57;;;;;;;;;0.00;0.00;;;;;18.62;73.54;100586.16;4952553;28;46099;-60
2023/04/28 04:45:22;;;;;;;;;1.25;0.00;;;;;18.66;73.93;100583.69;4950081;28;45337;-61
2023/04/28 04:47:48;;;;;;;;;1.00;1.00;;;;;18.66;73.62;100583.69;4933614;28;45309;-60
2023/04/28 04:50:13;;;;;;;;;0.00;0.00;;;;;18.60;73.77;100579.19;4933463;28;45364;-60
2023/04/28 04:52:39;;;;;;;;;0.25;0.25;;;;;18.67;73.88;100588.13;4933390;28;46412;-61
2023/04/28 04:55:05;;;;;;;;;0.50;0.50;;;;;18.71;73.50;100597.59;4932639;28;45575;-60
2023/04/28 04:57:30;;;;;;;;;0.00;0.00;;;;;18.63;73.07;100598.13;4933039;28;45366;-61
2023/04/28 04:59:56;;;;;;;;;1.00;0.00;;;;;18.55;74.02;100593.91;4933243;28;45326;-61
2023/04/28 05:02:21;;;;;;;;;0.00;0.00;;;;;18.61;73.90;100595.63;4947389;28;46649;-61
2023/04/28 05:04:47;;;;;;;;;1.00;1.00;;;;;18.68;74.10;100592.59;4932933;28;45352;-60
2023/04/28 05:07:13;;;;;;;;;1.25;1.25;;;;;18.69;73.49;100591.50;4932692;28;45385;-62
2023/04/28 05:09:38;;;;;;;;;0.00;0.00;;;;;18.56;72.93;100588.09;4947698;28;45481;-61
2023/04/28 05:12:04;;;;;;;;;0.25;0.25;;;;;18.61;73.53;100600.34;4947284;28;46351;-61
2023/04/28 05:14:29;;;;;;;;;0.80;0.80;;;;;18.62;73.54;100607.59;4932200;28;45447;-61
2023/04/28 05:16:55;;;;;;;;;0.00;0.00;;;;;18.65;73.62;100612.59;4932972;28;45403;-61
2023/04/28 05:19:21;;;;;;;;;1.00;1.00;;;;;18.66;73.01;100617.88;4932139;28;45442;-61
2023/04/28 05:21:47;;;;;;;;;2.00;1.00;;;;;18.61;73.37;100606.72;4932519;28;45734;-62
2023/04/28 05:24:15;;;;;;;;;0.25;0.25;;;;;18.66;73.51;100614.25;4931176;28;45459;-61
2023/04/28 05:26:41;;;;;;;;;0.00;0.00;;;;;18.61;73.06;100603.94;4930635;28;45467;-61
2023/04/28 05:29:06;;;;;;;;;2.00;0.25;;;;;18.63;73.50;100609.25;4947474;28;45476;-61
2023/04/28 05:31:32;;;;;;;;;1.00;1.00;;;;;18.64;73.31;100619.25;4948195;28;47429;-61
2023/04/28 05:33:58;;;;;;;;;0.00;0.00;;;;;18.66;73.54;100601.22;4935058;28;45279;-61
2023/04/28 05:36:23;;;;;;;;;1.00;1.00;;;;;18.68;73.18;100612.06;4935071;28;45350;-61
2023/04/28 05:38:49;;;;;;;;;0.00;0.00;;;;;18.57;72.23;100611.16;4935573;28;45420;-61
2023/04/28 05:41:14;;;;;;;;;1.25;0.75;;;;;18.49;73.00;100611.66;4935083;28;46106;-61
2023/04/28 05:43:40;;;;;;;;;0.00;0.00;;;;;18.54;73.33;100606.13;4934655;28;45243;-61
2023/04/28 05:46:05;;;;;;;;;1.25;1.25;;;;;18.52;73.48;100589.72;4969257;28;45298;-61
2023/04/28 05:48:31;;;;;;;;;0.50;0.50;;;;;18.56;72.86;100607.53;5069126;28;45487;-61
2023/04/28 05:50:56;;;;;;;;;0.00;0.00;;;;;18.54;73.21;100609.75;5035139;28;46091;-61
2023/04/28 05:53:22;;;;;;;;;0.50;0.50;;;;;18.58;73.38;100617.56;5036382;28;45295;-61
2023/04/28 05:55:47;;;;;;;;;1.00;1.00;;;;;18.62;73.40;100613.13;5030520;28;45576;-61
2023/04/28 05:58:13;;;;;;;;;1.00;0.75;;;;;18.59;73.48;100608.09;5034495;28;45368;-61
2023/04/28 06:00:38;;;;;;;;;0.00;0.00;;;;;18.54;72.76;100620.88;5069056;28;48702;-62
2023/04/28 06:03:04;;;;;;;;;0.75;0.75;;;;;18.55;73.48;100607.81;5035908;28;45378;-61
2023/04/28 06:05:29;;;;;;;;;0.75;0.75;;;;;18.62;73.32;100613.97;5069367;28;45380;-61
2023/04/28 06:07:55;;;;;;;;;0.75;0.75;;;;;18.68;73.25;100618.44;5029857;28;45422;-62
2023/04/28 06:10:21;;;;;;;;;1.00;1.00;;;;;18.66;73.20;100619.81;5032101;28;46365;-62
2023/04/28 06:12:47;;;;;;;;;0.00;0.00;;;;;18.60;73.03;100613.41;5069022;28;45393;-61
2023/04/28 06:15:12;;;;;;;;;1.00;1.00;;;;;18.60;73.38;100610.63;5035831;28;45306;-62
2023/04/28 06:17:38;;;;;;;;;0.00;0.00;;;;;18.56;73.48;100621.44;5066169;28;45532;-61
2023/04/28 06:20:05;;;;;;;;;1.00;1.00;;;;;18.60;73.21;100621.75;5036046;28;46937;-61
2023/04/28 06:22:30;;;;;;;;;1.40;0.80;;;;;18.66;73.25;100625.38;5035955;28;45429;-61
2023/04/28 06:24:56;;;;;;;;;1.00;1.00;;;;;18.73;73.30;100625.97;5036086;28;45335;-62
2023/04/28 06:27:21;;;;;;;;;1.25;1.00;;;;;18.69;73.33;100614.56;5036233;28;45659;-60
2023/04/28 06:29:47;;;;;;;;;2.00;1.00;;;;;18.81;72.90;100630.19;5035715;28;46653;-60
2023/04/28 06:32:13;;;;;;;;;1.00;1.00;;;;;18.82;72.70;100632.69;5035604;28;45431;-62
2023/04/28 06:34:38;;;;;;;;;2.25;1.00;;;;;18.86;72.69;100635.78;5036050;28;45361;-62
2023/04/28 06:37:04;;;;;;;;;1.75;1.75;;;;;18.84;72.73;100632.44;5035784;28;45346;-62
2023/04/28 06:39:29;;;;;;;;;0.50;0.50;;;;;18.82;72.12;100629.91;5036002;28;46696;-60
2023/04/28 06:41:55;;;;;;;;;1.75;1.00;;;;;18.85;72.36;100622.13;5035319;28;45828;-62
2023/04/28 06:44:20;;;;;;;;;2.00;0.75;;;;;18.85;71.69;100631.31;5035805;28;45371;-62
2023/04/28 06:46:45;;;;;;;;;1.25;1.00;;;;;18.87;72.42;100623.53;4993407;28;45632;-62
2023/04/28 06:49:11;;;;;;;;;2.00;1.00;;;;;18.92;72.00;100628.28;4934854;28;45604;-60
2023/04/28 06:51:37;;;;;;;;;2.00;2.00;;;;;19.05;72.07;100638.13;4949480;28;45400;-62
2023/04/28 06:54:02;;;;;;;;;1.25;1.25;;;;;19.04;71.98;100642.84;4949144;28;45420;-63
2023/04/28 06:56:28;;;;;;;;;2.50;1.00;;;;;19.12;70.97;100643.41;4935021;28;45603;-63
2023/04/28 06:58:54;;;;;;;;;2.00;2.00;;;;;19.03;71.53;100648.66;4934635;28;45761;-59
2023/04/28 07:01:19;;;;;;;;;2.00;2.00;;;;;19.07;71.71;100653.44;4948712;28;45392;-59
2023/04/28 07:03:45;;;;;;;;;2.00;1.00;;;;;19.12;70.89;100657.31;4934131;28;45342;-59
2023/04/28 07:06:10;;;;;;;;;1.75;1.75;;;;;19.06;71.09;100648.94;4934139;28;45334;-60
2023/04/28 07:08:36;;;;;;;;;3.00;1.25;;;;;19.17;71.54;100647.06;4934342;28;46070;-59
2023/04/28 07:11:05;;;;;;;;;3.50;3.50;;;;;19.22;71.08;100649.03;4933527;28;45388;-60
2023/04/28 07:13:31;;;;;;;;;4.00;2.40;;;;;19.21;70.87;100655.72;4938470;28;45297;-60
2023/04/28 07:15:56;;;;;;;;;2.60;2.60;;;;;19.21;71.28;100662.09;4934198;28;45421;-59
2023/04/28 07:18:22;;;;;;;;;2.25;1.25;;;;;19.15;69.72;100654.00;4961199;28;45333;-60
2023/04/28 07:20:47;;;;;;;;;2.00;2.00;;;;;19.00;70.97;100652.78;4965284;28;45880;-60
2023/04/28 07:23:13;;;;;;;;;2.75;2.75;;;;;19.13;71.54;100657.06;4929950;28;45327;-60
2023/04/28 07:25:42;;;;;;;;;1.75;1.75;;;;;19.15;70.88;100656.78;4922301;28;45391;-59
2023/04/28 07:28:07;;;;;;;;;2.40;2.40;;;;;19.20;70.87;100659.56;4932332;28;46384;-60
2023/04/28 07:30:33;;;;;;;;;5.00;3.00;;;;;19.24;70.77;100660.72;4964771;28;45943;-60
2023/04/28 07:32:59;;;;;;;;;9.75;9.75;;;;;19.28;71.06;100663.78;4933964;28;45475;-60
2023/04/28 07:35:24;;;;;;;;;2.00;2.00;;;;;19.28;70.39;100661.84;4933951;28;45592;-60
2023/04/28 07:37:50;;;;;;;;;3.00;3.00;;;;;19.26;69.96;100669.63;4965031;28;46631;-60
2023/04/28 07:40:16;;;;;;;;;2.00;2.00;;;;;19.29;70.41;100666.31;4933465;28;45468;-60
2023/04/28 07:42:44;;;;;;;;;2.60;2.20;;;;;19.42;70.66;100664.94;4933553;28;45465;-60
2023/04/28 07:45:09;;;;;;;;;5.75;2.25;;;;;19.45;70.07;100656.06;4934267;28;45570;-59
2023/04/28 07:47:35;;;;;;;;;3.25;2.25;;;;;19.54;70.11;100667.50;4904447;28;46278;-56
2023/04/28 07:50:05;;;;;;;;;2.50;2.00;;;;;19.66;69.67;100675.59;4936701;28;45503;-59
2023/04/28 07:52:34;;;;;;;;;3.20;2.00;;;;;19.66;69.44;100677.53;4929065;28;45774;-59
2023/04/28 07:55:01;;;;;;;;;1.40;1.40;;;;;19.72;69.36;100670.84;5034772;28;45755;-58
2023/04/28 07:57:28;;;;;;;;;3.80;2.00;;;;;19.71;69.38;100674.75;4961773;28;46521;-58
2023/04/28 07:59:53;;;;;;;;;1.80;1.80;;;;;19.71;68.46;100678.38;4930597;28;45362;-60
2023/04/28 08:02:19;;;;;;;;;2.00;2.00;;;;;19.70;69.03;100670.31;4930793;28;45340;-60
2023/04/28 08:04:45;;;;;;;;;3.00;2.80;;;;;19.86;68.97;100674.78;4931008;28;45452;-60
2023/04/28 08:07:10;;;;;;;;;4.00;4.00;;;;;19.93;68.56;100680.09;5020504;28;45456;-59
2023/04/28 08:09:36;;;;;;;;;3.50;3.50;;;;;20.08;68.80;100672.88;5032406;28;45322;-59
2023/04/28 08:12:01;;;;;;;;;7.75;7.75;;;;;20.20;68.04;100669.81;4994307;28;45413;-60
2023/04/28 08:14:28;;;;;;;;;2.00;2.00;;;;;20.27;67.17;100674.00;4922840;28;45992;-60
2023/04/28 08:16:54;;;;;;;;;0.20;0.20;;;;;19.98;65.78;100680.13;4918443;28;47003;-60
2023/04/28 08:19:20;;;;;;;;;2.50;2.50;;;;;19.81;67.05;100682.28;4948595;28;45698;-59
2023/04/28 08:21:46;;;;;;;;;1.80;1.80;;;;;19.97;68.14;100688.75;4916082;28;45674;-60
2023/04/28 08:24:11;;;;;;;;;2.00;2.00;;;;;19.91;66.70;100676.75;4939505;28;45399;-62
2023/04/28 08:26:37;;;;;;;;;4.00;4.00;;;;;20.06;67.61;100686.25;4980269;28;45961;-61
2023/04/28 08:29:03;;;;;;;;;4.25;4.25;;;;;20.20;68.06;100683.75;5033053;28;45382;-62
2023/04/28 08:31:28;;;;;;;;;2.75;2.75;;;;;20.21;67.14;100686.25;4953793;28;45462;-61
2023/04/28 08:33:54;;;;;;;;;1.00;1.00;;;;;20.13;65.23;100687.63;4932395;28;45606;-62
2023/04/28 08:36:20;;;;;;;;;4.25;3.25;;;;;20.10;67.17;100679.00;4932679;28;46319;-60
2023/04/28 08:38:46;;;;;;;;;5.25;3.00;;;;;20.25;67.14;100689.31;4933003;28;45504;-62
2023/04/28 08:41:13;;;;;;;;;2.00;1.00;;;;;20.04;65.20;100686.53;4933406;28;45397;-63
2023/04/28 08:43:41;;;;;;;;;5.60;4.00;;;;;20.03;67.26;100682.06;4963242;28;45748;-62
2023/04/28 08:46:07;;;;;;;;;8.40;7.20;;;;;20.09;66.77;100688.47;4951248;28;46958;-63
2023/04/28 08:48:43;;;;;;;;;7.00;5.00;;;;;20.07;67.19;100686.00;5034034;28;45279;-63
2023/04/28 08:51:09;;;;;;;;;3.20;2.20;;;;;20.15;66.28;100699.38;5034133;28;45362;-62
2023/04/28 08:53:36;;;;;;;;;1.00;1.00;;;;;20.07;66.47;100686.00;5066376;28;45522;-62
2023/04/28 08:56:04;;;;;;;;;4.60;3.60;;;;;20.15;66.94;100690.16;5033395;28;47469;-61
2023/04/28 08:58:29;;;;;;;;;3.20;2.00;;;;;20.22;66.73;100692.69;5033857;28;45381;-62
2023/04/28 09:00:55;;;;;;;;;8.00;5.00;;;;;20.20;65.83;100690.16;5066209;28;45399;-61
2023/04/28 09:03:20;;;;;;;;;1.25;1.25;;;;;20.09;64.14;100703.25;5033859;28;45291;-61
2023/04/28 09:05:46;;;;;;;;;1.75;1.75;;;;;19.92;65.52;100689.56;4964230;28;46715;-61
2023/04/28 09:08:12;;;;;;;;;5.50;4.50;;;;;20.02;66.32;100700.72;4946496;28;45414;-61
2023/04/28 09:10:37;;;;;;;;;9.75;9.75;;;;;20.02;66.10;100699.91;4934512;28;45659;-61
2023/04/28 09:13:03;;;;;;;;;2.75;1.50;;;;;20.05;65.75;100696.56;4934201;28;46018;-61
2023/04/28 09:15:35;;;;;;;;;8.50;7.00;;;;;20.04;65.78;100708.81;4934307;28;45943;-61
2023/04/28 09:18:02;;;;;;;;;4.00;3.40;;;;;20.03;66.56;100696.81;4940121;28;45660;-62
2023/04/28 09:20:28;;;;;;;;;2.40;2.40;;;;;20.07;65.70;100697.13;4953369;28;45450;-62
2023/04/28 09:22:55;;;;;;;;;3.40;3.40;;;;;20.03;66.02;100687.66;4953568;28;45688;-62
2023/04/28 09:25:22;;;;;;;;;2.60;2.60;;;;;20.22;65.75;100699.06;4953039;28;45464;-61
2023/04/28 09:27:50;;;;;;;;;2.60;2.00;;;;;20.24;65.77;100698.78;4953308;28;45474;-60
2023/04/28 09:30:16;;;;;;;;;4.20;3.00;;;;;20.22;65.95;100714.97;4951395;28;45412;-61
2023/04/28 09:32:42;;;;;;;;;5.25;4.25;;;;;20.26;65.40;100708.56;4953783;28;45519;-63
2023/04/28 09:35:11;;;;;;;;;2.00;2.00;;;;;20.21;65.09;100700.19;4953396;28;47120;-61
2023/04/28 09:37:36;;;;;;;;;0.40;0.00;;;;;19.81;62.85;100685.94;4931793;28;45369;-61
2023/04/28 09:40:07;;;;;;;;;2.00;2.00;;;;;19.95;65.16;100704.88;4947596;28;45454;-62
2023/04/28 09:42:33;;;;;;;;;1.20;1.20;;;;;19.98;64.79;100710.78;4942714;28;45615;-61
2023/04/28 09:45:00;;;;;;;;;2.00;2.00;;;;;20.05;64.90;100696.56;4952783;28;46191;-61
2023/04/28 09:47:26;;;;;;;;;0.60;0.60;;;;;20.13;63.17;100704.34;4976196;28;45368;-62
2023/04/28 09:49:55;;;;;;;;;1.50;1.50;;;;;20.13;64.13;100717.47;4934307;28;45432;-61
2023/04/28 09:52:22;;;;;;;;;1.80;1.00;;;;;20.18;64.48;100701.56;4932511;28;45422;-61
2023/04/28 09:54:52;;;;;;;;;0.00;0.00;;;;;20.10;63.62;100712.44;4934509;28;46198;-61
2023/04/28 09:57:17;;;;;;;;;3.80;2.20;;;;;20.30;63.16;100706.03;4933701;28;45470;-61
2023/04/28 09:59:46;;;;;;;;;1.75;1.75;;;;;20.36;63.02;100709.66;4933018;28;45535;-61
2023/04/28 10:02:15;;;;;;;;;4.20;3.80;;;;;20.63;62.95;100720.53;4933748;28;45311;-61
2023/04/28 10:04:43;;;;;;;;;3.00;1.80;;;;;20.83;62.87;100719.66;4931943;28;45893;-60
2023/04/28 10:07:11;;;;;;;;;4.00;4.00;;;;;20.89;63.33;100720.50;4944343;28;45454;-61
2023/04/28 10:09:37;;;;;;;;;1.40;1.40;;;;;20.94;62.65;100708.50;4953209;28;45352;-61
2023/04/28 10:12:02;;;;;;;;;2.60;1.80;;;;;20.91;59.49;100726.63;4983850;28;45281;-61
2023/04/28 10:14:29;;;;;;;;;1.75;1.75;;;;;20.80;60.96;100716.56;4973415;28;46396;-61
2023/04/28 10:16:55;;;;;;;;;1.00;1.00;;;;;20.92;60.80;100725.50;4928638;28;45422;-60
2023/04/28 10:19:20;;;;;;;;;1.00;1.00;;;;;20.95;60.72;100715.75;4937784;28;45404;-61
2023/04/28 10:21:50;;;;;;;;;0.25;0.25;;;;;20.97;60.95;100713.53;4984298;28;45466;-62
2023/04/28 10:24:17;;;;;;;;;1.00;1.00;;;;;20.87;59.45;100711.59;4967200;28;47044;-62
2023/04/28 10:27:08;;;;;;;;;1.20;1.20;;;;;21.03;60.80;100733.88;4952030;28;45532;-62
2023/04/28 10:29:34;;;;;;;;;0.60;0.60;;;;;20.94;57.58;100719.66;4968087;28;45396;-61
2023/04/28 10:32:19;;;;;;;;;0.80;0.80;;;;;20.71;59.03;100700.41;4950045;28;45608;-61
2023/04/28 10:34:46;;;;;;;;;0.60;0.60;;;;;20.76;59.09;100715.50;4952560;28;46329;-63
2023/04/28 10:37:13;;;;;;;;;1.80;0.80;;;;;20.81;59.70;100721.06;4952339;28;45279;-60
2023/04/28 10:39:39;;;;;;;;;1.60;1.60;;;;;20.90;60.58;100729.69;4952462;28;45352;-60
2023/04/28 10:42:07;;;;;;;;;1.80;1.80;;;;;21.04;59.72;100722.44;4983432;28;45609;-59
2023/04/28 10:44:32;;;;;;;;;1.80;1.80;;;;;21.22;59.67;100720.13;4977467;28;45480;-60
2023/04/28 10:46:59;;;;;;;;;0.50;0.50;;;;;21.22;58.00;100722.91;4951772;28;45473;-60
2023/04/28 10:49:56;;;;;;;;;2.00;1.00;;;;;21.31;58.36;100726.81;4933432;28;45391;-61
2023/04/28 10:52:40;;;;;;;;;0.60;0.60;;;;;21.52;58.78;100727.53;5010920;28;45381;-59
2023/04/28 10:55:38;;;;;;;;;2.40;2.40;;;;;21.60;57.96;100719.69;5007109;28;47048;-60
2023/04/28 10:58:29;;;;;;;;;1.40;1.40;;;;;21.67;57.05;100717.44;4934296;28;45284;-59
2023/04/28 11:00:54;;;;;;;;;0.60;0.60;;;;;21.65;56.65;100711.28;4949629;28;45431;-59
2023/04/28 11:03:41;;;;;;;;;1.75;1.75;;;;;21.78;57.73;100718.22;4932847;28;45528;-58
2023/04/28 11:06:27;;;;;;;;;1.00;0.00;;;;;21.71;56.53;100728.88;4934459;28;46287;-61
2023/04/28 11:08:56;;;;;;;;;2.00;2.00;;;;;21.89;57.51;100728.19;4934521;28;45400;-58
2023/04/28 11:11:25;;;;;;;;;0.80;0.80;;;;;22.02;57.58;100718.34;4931412;28;45274;-60
2023/04/28 11:13:53;;;;;;;;;1.20;1.20;;;;;22.19;57.10;100725.47;4934828;28;45480;-59
2023/04/28 11:16:20;;;;;;;;;2.00;1.80;;;;;22.29;56.79;100724.56;4934484;28;45689;-60
2023/04/28 11:18:53;;;;;;;;;0.80;0.80;;;;;22.41;56.62;100727.81;4949299;28;45804;-61
2023/04/28 11:21:19;;;;;;;;;1.00;1.00;;;;;22.41;56.92;100710.22;4949206;28;45313;-62